Cid, North Carolina
Current Conditions -  °F | °C
As of 5:55 AM on Sunday 23 Nov 2014 (Local Time) from KEXX Reporting Station
Broken Clouds Broken Clouds  
Wind Chill: 41°   Ceiling: 2000
Heat Index: 41°   Visibility: 10mi
Dew Point: 30°   Wind: 0mph
Humidity: 65%   Direction: NA
Pressure: 30.25"   Gusts: NA
Location:  35.7974°N, 80.2541°W
Report Text: KEXX 231055Z AUTO 00000KT 10SM SCT011 BKN020 BKN060 05/M01 A3025 RMK AO2 T00501010
Loading
Personal Weather Stations






























Interactive Weather Map New forecast layout! Learn more

10-Day Weather Forecast

Advertisements
Track Severe Weather on mobile